Latest Weather Observations for Cowra

IDN60801

Issued at 6:32 pm EDT Tuesday 9 February 2016 (issued every 30 minutes, with the page automatically refreshed every 10 minutes)

About weather observations | Map of weather stations | Latest weather observations for NSW | Other Formats
Station Details ID: 065111 Name: COWRA AIRPORT AWS Lat: -33.84 Lon: 148.65 Height: 296.5 m
Data from the previous 72 hours. | See also: Recent months at Cowra
Date/Time
EDT
Temp
°C
App
Temp
°C
Dew
Point
Rel
Hum
%
Delta-T
°C
Wind Press
QNH
hPa
Press
MSL
hPa
Rain
since 9 am
mm
Dir
 
Spd
km/h
Gust
km/h
Spd
kts
Gust
kts
09/06:30pm 31.3 30.2 10.6 28 12.0 ESE 7 17 4 9 1014.9 - 0.0
09/06:00pm 32.5 30.8 11.1 27 12.6 ESE 11 26 6 14 1015.0 1013.7 0.0
09/05:30pm 31.6 29.6 10.3 27 12.3 E 11 15 6 8 1015.2 - 0.0
09/05:00pm 32.2 28.9 10.8 27 12.5 SE 19 22 10 12 1015.5 - 0.0
09/04:30pm 32.9 30.6 10.3 25 13.2 S 13 20 7 11 1015.7 - 0.0
09/04:00pm 33.4 32.1 12.4 28 12.7 SE 11 20 6 11 1016.1 - 0.0
09/03:30pm 31.7 30.6 13.0 32 11.3 SE 11 19 6 10 1016.7 - 0.0
09/03:00pm 31.8 31.6 13.5 32 11.1 WSW 7 15 4 8 1017.2 1015.9 0.0
09/02:30pm 31.3 30.9 14.0 35 10.6 SE 9 20 5 11 1017.8 - 0.0
09/02:00pm 30.5 30.1 14.2 37 10.0 SSW 9 15 5 8 1018.3 - 0.0
09/01:30pm 29.8 29.0 14.0 38 9.6 SW 11 20 6 11 1018.7 - 0.0
09/01:00pm 29.3 27.8 13.1 37 9.7 SE 13 20 7 11 1019.1 - 0.0
09/12:30pm 28.6 27.3 12.5 37 9.5 ESE 11 17 6 9 1019.4 - 0.0
09/12:00pm 28.0 26.0 12.8 39 9.0 SE 15 22 8 12 1019.9 1018.7 0.0
09/11:30am 27.3 26.1 12.9 41 8.5 SE 11 20 6 11 1020.3 - 0.0
09/11:00am 26.4 25.8 13.5 45 7.7 ESE 9 19 5 10 1020.7 - 0.0
09/10:30am 26.1 24.8 14.9 50 6.8 ESE 15 20 8 11 1020.7 - 0.0
09/10:00am 24.3 23.5 12.9 49 6.7 SSE 9 15 5 8 1020.9 - 0.0
09/09:30am 23.4 23.7 13.3 53 5.9 SE 4 11 2 6 1021.1 - 0.0
09/09:00am 22.6 22.1 12.5 53 5.8 ESE 7 13 4 7 1021.1 1019.6 0.0
09/08:30am 21.8 21.3 12.6 56 5.3 SE 7 11 4 6 1020.9 - 0.0
09/08:00am 20.8 20.7 13.3 62 4.3 SE 6 9 3 5 1020.7 - 0.0
09/07:30am 18.0 19.2 13.9 77 2.4 CALM 0 0 0 0 1020.6 - 0.0
09/07:00am 18.8 18.7 13.2 70 3.2 SSE 6 7 3 4 1020.3 - 0.0
09/06:30am 18.7 18.3 13.1 70 3.2 SE 7 9 4 5 1019.9 - 0.0
09/06:00am 19.3 18.7 13.5 69 3.3 SE 9 13 5 7 1019.4 1018.0 0.0
09/05:30am 19.3 18.4 13.7 70 3.2 ESE 11 15 6 8 1019.1 - 0.0
09/05:00am 19.6 18.8 14.0 70 3.3 SE 11 15 6 8 1018.8 - 0.0
09/04:30am 19.7 18.7 13.4 67 3.6 ESE 11 17 6 9 1018.6 - 0.0
09/04:00am 19.8 19.0 12.8 64 4.0 ESE 9 13 5 7 1018.4 - 0.0
09/03:30am 16.5 15.1 9.7 64 3.6 S 7 9 4 5 1018.4 - 0.0
09/03:00am 20.8 19.8 12.2 58 4.9 ESE 9 13 5 7 1018.3 1017.0 0.0
09/02:30am 17.2 16.8 8.1 55 4.7 CALM 0 0 0 0 1018.5 - 0.0
09/02:00am 16.5 16.4 9.4 63 3.7 CALM 0 0 0 0 1018.4 - 0.0
09/01:30am 18.8 16.9 6.6 45 6.2 SSE 6 9 3 5 1018.3 - 0.0
09/01:00am 20.4 18.4 7.1 42 6.9 S 7 9 4 5 1018.5 - 0.0
09/12:30am 20.6 20.0 7.2 42 6.9 CALM 0 0 0 0 1018.4 - 0.0
09/12:00am 20.4 20.0 8.1 45 6.5 CALM 0 0 0 0 1018.4 1017.0 0.0
 
Date/Time
EDT
Temp
°C
App
Temp
°C
Dew
Point
Rel
Hum
%
Delta-T
°C
Wind Press
QNH
hPa
Press
MSL
hPa
Rain
since 9 am
mm
Dir
 
Spd
km/h
Gust
km/h
Spd
kts
Gust
kts
08/11:30pm 20.5 19.8 6.8 41 7.0 CALM 0 0 0 0 1018.2 - 0.0
08/11:00pm 21.4 20.8 7.6 41 7.2 CALM 0 0 0 0 1018.2 - 0.0
08/10:30pm 19.9 17.9 7.3 44 6.5 N 7 9 4 5 1018.2 - 0.0
08/10:25pm 19.9 17.8 6.6 42 6.8 NE 7 9 4 5 1018.1 - 0.0
08/10:00pm 25.1 22.2 4.8 27 10.4 ESE 9 11 5 6 1017.8 - 0.0
08/09:30pm 25.7 22.7 4.2 25 10.9 E 9 11 5 6 1017.3 - 0.0
08/09:00pm 26.9 24.4 4.6 24 11.4 E 7 9 4 5 1016.9 1015.6 0.0
08/08:30pm 28.0 25.2 5.0 23 12.0 E 9 13 5 7 1016.6 - 0.0
08/08:00pm 29.3 26.3 4.0 20 13.1 ESE 9 13 5 7 1016.4 - 0.0
08/07:30pm 31.2 27.1 2.4 16 14.6 ESE 13 20 7 11 1016.1 - 0.0
08/07:00pm 32.2 27.1 3.2 16 15.0 SE 19 28 10 15 1015.7 - 0.0
08/06:30pm 32.8 27.7 2.8 15 15.5 SE 19 30 10 16 1015.5 - 0.0
08/06:00pm 33.3 27.9 1.2 13 16.2 SSE 19 28 10 15 1015.4 1014.1 0.0
08/05:30pm 33.4 27.7 -1.0 11 16.8 ESE 19 33 10 18 1015.5 - 0.0
08/05:00pm 33.4 27.6 0.1 12 16.5 SE 20 33 11 18 1015.7 - 0.0
08/04:30pm 33.5 27.6 -1.0 11 16.8 SSE 20 32 11 17 1016.0 - 0.0
08/04:00pm 34.0 27.2 0.6 12 16.8 SSE 26 33 14 18 1016.2 - 0.0
08/03:30pm 32.7 28.1 3.6 16 15.2 SSE 17 28 9 15 1016.4 - 0.0
08/03:00pm 33.1 27.6 2.0 14 15.9 SSE 20 30 11 16 1016.7 1015.5 0.0
08/02:30pm 32.4 26.5 1.5 14 15.6 SSE 22 32 12 17 1017.2 - 0.0
08/02:00pm 32.1 26.5 1.3 14 15.5 SE 20 28 11 15 1017.6 - 0.0
08/01:30pm 31.3 26.9 2.5 16 14.7 SSE 15 35 8 19 1017.9 - 0.0
08/01:00pm 29.9 26.6 6.5 23 12.6 SE 13 17 7 9 1018.2 - 0.0
08/12:30pm 28.8 25.8 6.2 24 12.1 E 11 17 6 9 1018.7 - 0.0
08/12:00pm 28.5 25.6 8.2 28 11.2 SE 13 19 7 10 1019.1 1017.8 0.0
08/11:30am 27.6 25.5 9.9 33 10.0 SSE 11 20 6 11 1019.4 - 0.0
08/11:00am 26.5 24.5 11.4 39 8.7 SE 13 19 7 10 1019.8 - 0.0
08/10:30am 24.6 22.5 11.2 43 7.6 ESE 13 20 7 11 1020.0 - 0.0
08/10:00am 23.6 22.3 13.8 54 5.8 SSE 13 17 7 9 1020.1 - 0.0
08/09:30am 22.1 21.1 13.5 58 5.0 SE 11 17 6 9 1020.2 - 0.0
08/09:00am 20.7 19.5 13.9 65 4.0 SSE 13 17 7 9 1020.2 1018.7 0.0
08/08:30am 19.6 19.2 14.2 71 3.2 S 9 15 5 8 1020.2 - 0.0
08/08:00am 17.8 19.0 13.9 78 2.3 CALM 0 7 0 4 1020.0 - 0.0
08/07:30am 16.2 17.1 12.9 81 1.9 CALM 0 6 0 3 1019.8 - 0.0
08/07:00am 14.0 14.5 11.5 85 1.4 CALM 0 0 0 0 1019.3 - 0.0
08/06:30am 14.5 15.2 12.2 86 1.3 CALM 0 0 0 0 1019.0 - 0.0
08/06:00am 13.5 13.1 9.9 79 1.9 S 2 6 1 3 1018.7 1017.4 0.0
08/05:30am 14.8 15.4 11.8 82 1.6 CALM 0 0 0 0 1018.6 - 0.0
08/05:00am 15.5 15.7 11.7 78 2.1 SSE 2 6 1 3 1018.4 - 0.0
08/04:30am 16.6 16.1 12.8 78 2.1 SE 7 9 4 5 1018.2 - 0.0
08/04:00am 16.5 17.4 13.0 80 2.0 CALM 0 0 0 0 1018.2 - 0.0
08/03:30am 16.4 16.1 12.8 79 2.0 SSE 6 7 3 4 1018.2 - 0.0
08/03:00am 17.9 17.8 13.2 74 2.7 E 6 9 3 5 1018.2 1016.9 0.0
08/02:30am 17.6 18.3 12.3 71 3.0 CALM 0 0 0 0 1018.4 - 0.0
08/02:00am 19.3 18.9 13.0 67 3.6 SSE 7 9 4 5 1018.4 - 0.0
08/01:30am 19.5 20.6 13.4 68 3.5 CALM 0 0 0 0 1018.3 - 0.0
08/01:00am 18.5 17.6 12.5 68 3.4 NNE 9 11 5 6 1018.3 - 0.0
08/12:30am 19.7 18.7 12.2 62 4.2 NE 9 11 5 6 1018.3 - 0.0
08/12:00am 22.5 22.0 12.7 54 5.7 ESE 7 11 4 6 1018.1 1016.8 0.0
 
Date/Time
EDT
Temp
°C
App
Temp
°C
Dew
Point
Rel
Hum
%
Delta-T
°C
Wind Press
QNH
hPa
Press
MSL
hPa
Rain
since 9 am
mm
Dir
 
Spd
km/h
Gust
km/h
Spd
kts
Gust
kts
07/11:30pm 22.7 21.8 12.6 53 5.8 ENE 9 15 5 8 1017.7 - 0.0
07/11:00pm 23.8 21.7 12.4 48 6.6 ENE 15 24 8 13 1017.4 - 0.0
07/10:30pm 24.3 22.2 12.3 47 7.0 ENE 15 20 8 11 1017.2 - 0.0
07/10:00pm 25.1 23.3 10.9 41 8.1 E 11 17 6 9 1017.0 - 0.0
07/09:30pm 25.6 23.7 10.6 39 8.5 ESE 11 15 6 8 1016.5 - 0.0
07/09:00pm 27.2 25.2 10.0 34 9.7 SE 11 15 6 8 1015.8 1014.4 0.0
07/08:30pm 26.5 26.7 10.6 37 9.0 CALM 0 0 0 0 1015.2 - 0.0
07/08:00pm 28.3 28.2 10.9 34 10.0 SE 2 7 1 4 1015.0 - 0.0
07/07:30pm 29.8 28.5 9.9 29 11.4 SE 7 11 4 6 1014.7 - 0.0
07/07:00pm 30.3 28.2 8.1 25 12.3 SE 9 15 5 8 1014.5 - 0.0
07/06:30pm 30.3 28.2 8.1 25 12.3 ESE 9 17 5 9 1014.5 - 0.0
07/06:00pm 30.7 28.3 7.2 23 12.9 SE 9 19 5 10 1014.5 1013.2 0.0
07/05:30pm 30.6 28.3 8.9 26 12.2 E 11 20 6 11 1014.4 - 0.0
07/05:00pm 30.3 27.8 8.1 25 12.3 E 11 19 6 10 1014.4 - 0.0
07/04:30pm 30.3 27.5 8.7 26 12.1 E 13 19 7 10 1014.6 - 0.0
07/04:00pm 30.5 28.5 11.5 31 11.2 E 13 20 7 11 1014.7 - 0.0
07/03:30pm 28.9 27.9 11.0 33 10.4 S 7 11 4 6 1015.1 - 0.0
07/03:00pm 28.7 27.3 10.8 33 10.3 SW 9 17 5 9 1015.4 1014.2 0.0
07/02:30pm 28.1 27.0 10.8 34 9.9 SW 7 13 4 7 1015.8 - 0.0
07/02:00pm 27.6 26.9 12.0 38 9.1 NE 7 13 4 7 1016.2 - 0.0
07/01:30pm 27.0 26.0 12.3 40 8.6 S 9 15 5 8 1016.5 - 0.0
07/01:00pm 26.5 25.5 12.2 41 8.4 NNW 9 15 5 8 1016.8 - 0.0
07/12:30pm 26.3 25.8 12.7 43 8.0 NW 7 15 4 8 1017.3 - 0.0
07/12:00pm 25.4 24.6 11.2 41 8.1 NNE 6 11 3 6 1017.6 1016.3 0.0
07/11:30am 24.5 23.6 12.5 47 7.0 WNW 9 13 5 7 1018.0 - 0.0
07/11:00am 24.1 23.3 11.8 46 7.1 NNE 7 13 4 7 1018.2 - 0.0
07/10:30am 23.2 22.7 12.5 51 6.2 ESE 7 19 4 10 1018.4 - 0.0
07/10:00am 22.1 21.0 12.1 53 5.7 ESE 9 19 5 10 1018.6 - 0.0
07/09:30am 21.1 19.7 12.3 57 5.0 ESE 11 17 6 9 1018.7 - 0.0
07/09:00am 20.5 18.7 12.2 59 4.7 ESE 13 17 7 9 1018.8 1017.4 0.0
07/08:30am 18.9 17.5 12.2 65 3.8 SE 11 15 6 8 1018.6 - 0.0
07/08:00am 17.8 16.9 12.7 72 2.9 SSE 9 11 5 6 1018.5 - 0.0
07/07:30am 15.7 15.2 12.1 79 2.0 SSE 6 7 3 4 1018.3 - 0.0
07/07:00am 15.0 14.4 11.6 80 1.9 SSE 6 7 3 4 1018.1 - 0.0
07/06:30am 15.0 14.2 11.8 81 1.8 S 7 9 4 5 1017.6 - 0.0
07/06:00am 15.0 14.2 11.6 80 1.9 S 7 7 4 4 1017.2 1015.8 0.0
07/05:30am 15.6 14.8 11.8 78 2.1 S 7 7 4 4 1017.0 - 0.0
07/05:00am 17.8 17.0 11.8 68 3.3 SE 7 9 4 5 1016.9 - 0.0
07/04:30am 16.5 15.6 11.2 71 2.9 SE 7 9 4 5 1016.9 - 0.0
07/04:00am 18.1 17.4 11.4 65 3.7 SE 6 7 3 4 1017.0 - 0.0
07/03:30am 18.4 17.5 11.5 64 3.8 E 7 11 4 6 1017.0 - 0.0
07/03:00am 18.7 17.5 11.5 63 4.0 E 9 11 5 6 1017.0 1015.7 0.0
07/02:30am 18.7 17.9 11.8 64 3.9 E 7 11 4 6 1017.2 - 0.0
07/02:00am 18.6 18.1 11.9 65 3.7 E 6 9 3 5 1017.3 - 0.0
07/01:30am 18.6 19.4 12.4 67 3.5 CALM 0 0 0 0 1017.3 - 0.0
07/01:00am 19.2 19.8 12.0 63 4.0 CALM 0 0 0 0 1017.5 - 0.0
07/12:30am 19.8 19.0 13.0 65 3.9 E 9 13 5 7 1017.5 - 0.0
07/12:00am 19.6 20.3 13.3 67 3.6 ENE 2 7 1 4 1017.6 1016.3 0.0
 
Date/Time
EDT
Temp
°C
App
Temp
°C
Dew
Point
Rel
Hum
%
Delta-T
°C
Wind Press
QNH
hPa
Press
MSL
hPa
Rain
since 9 am
mm
Dir
 
Spd
km/h
Gust
km/h
Spd
kts
Gust
kts
06/11:30pm 18.9 19.2 13.3 70 3.2 ENE 4 7 2 4 1017.2 - 0.0
06/11:00pm 19.6 19.6 12.4 63 4.1 SE 4 7 2 4 1017.1 - 0.0
06/10:30pm 21.5 20.8 13.2 59 4.8 E 9 13 5 7 1016.9 - 0.0
06/10:00pm 21.9 19.8 13.5 59 4.9 ENE 17 28 9 15 1016.6 - 0.0
06/09:30pm 22.2 19.7 13.5 57 5.1 ENE 19 28 10 15 1016.3 - 0.0
06/09:00pm 23.0 21.4 13.8 56 5.4 ENE 15 19 8 10 1016.0 1014.6 0.0
06/08:30pm 23.7 22.0 13.6 53 6.0 ENE 15 20 8 11 1015.3 - 0.0
06/08:00pm 25.1 23.0 13.6 49 6.8 ENE 17 28 9 15 1015.0 - 0.0
06/07:30pm 26.3 23.9 12.7 43 8.0 ENE 17 26 9 14 1014.5 - 0.0
06/07:00pm 26.9 25.2 13.6 44 8.0 ENE 15 20 8 11 1014.1 - 0.0

Other Formats:

Comma delimited format used in spreadsheet applications
http://www.bom.gov.au/fwo/IDN60801/IDN60801.95721.axf

JavaScript Object Notation format (JSON) in row-major order
http://www.bom.gov.au/fwo/IDN60801/IDN60801.95721.json